createdAt,value
2018-06-11T00:00:29.950Z,997.24
2018-06-11T00:01:29.743Z,997.26
2018-06-11T00:02:29.738Z,997.26
2018-06-11T00:03:29.734Z,997.26
2018-06-11T00:04:29.729Z,997.28
2018-06-11T00:05:29.725Z,997.24
2018-06-11T00:06:29.720Z,997.25
2018-06-11T00:07:29.716Z,997.32
2018-06-11T00:08:29.712Z,997.29
2018-06-11T00:09:29.707Z,997.30
2018-06-11T00:10:29.702Z,997.28
2018-06-11T00:11:29.701Z,997.24
2018-06-11T00:12:29.693Z,997.23
2018-06-11T00:13:29.689Z,997.27
2018-06-11T00:14:29.684Z,997.22
2018-06-11T00:15:29.680Z,997.30
2018-06-11T00:16:29.681Z,997.32
2018-06-11T00:17:29.671Z,997.30
2018-06-11T00:18:29.666Z,997.29
2018-06-11T00:19:29.661Z,997.31
2018-06-11T00:20:29.659Z,997.27
2018-06-11T00:21:29.654Z,997.26
2018-06-11T00:22:29.647Z,997.22
2018-06-11T00:23:29.646Z,997.21
2018-06-11T00:24:29.641Z,997.26
2018-06-11T00:25:29.635Z,997.27
2018-06-11T00:26:29.630Z,997.25
2018-06-11T00:27:29.625Z,997.25
2018-06-11T00:28:29.620Z,997.26
2018-06-11T00:29:29.615Z,997.25
2018-06-11T00:30:29.610Z,997.22
2018-06-11T00:31:29.606Z,997.25
2018-06-11T00:32:29.601Z,997.20
2018-06-11T00:33:29.597Z,997.17
2018-06-11T00:34:29.594Z,997.19
2018-06-11T00:35:29.587Z,997.17
2018-06-11T00:36:29.583Z,997.19
2018-06-11T00:37:29.578Z,997.19
2018-06-11T00:38:29.573Z,997.19
2018-06-11T00:39:29.568Z,997.16
2018-06-11T00:40:29.567Z,997.20
2018-06-11T00:41:29.559Z,997.16
2018-06-11T00:42:29.553Z,997.18
2018-06-11T00:43:29.549Z,997.15
2018-06-11T00:44:29.545Z,997.16
2018-06-11T00:45:29.541Z,997.11
2018-06-11T00:46:29.535Z,997.14
2018-06-11T00:47:29.535Z,997.14
2018-06-11T00:48:29.525Z,997.14
2018-06-11T00:49:29.521Z,997.13
2018-06-11T00:50:29.718Z,997.10
2018-06-11T00:51:29.511Z,997.11
2018-06-11T00:52:29.506Z,997.10
2018-06-11T00:53:29.505Z,997.09
2018-06-11T00:54:29.497Z,997.09
2018-06-11T00:55:29.494Z,997.11
2018-06-11T00:56:29.489Z,997.08
2018-06-11T00:57:29.485Z,997.15
2018-06-11T00:58:29.478Z,997.16
2018-06-11T00:59:29.473Z,997.14
2018-06-11T01:00:29.475Z,997.16
2018-06-11T01:01:29.465Z,997.20
2018-06-11T01:02:29.459Z,997.21
2018-06-11T01:03:29.454Z,997.21
2018-06-11T01:04:29.450Z,997.19
2018-06-11T01:05:29.445Z,997.18
2018-06-11T01:06:29.439Z,997.17
2018-06-11T01:07:29.435Z,997.15
2018-06-11T01:08:29.430Z,997.17
2018-06-11T01:09:29.426Z,997.16
2018-06-11T01:10:29.623Z,997.16
2018-06-11T01:11:29.416Z,997.19
2018-06-11T01:12:29.411Z,997.17
2018-06-11T01:13:29.406Z,997.18
2018-06-11T01:14:29.400Z,997.20
2018-06-11T01:15:29.399Z,997.18
2018-06-11T01:16:29.391Z,997.17
2018-06-11T01:17:29.387Z,997.20
2018-06-11T01:18:29.384Z,997.14
2018-06-11T01:19:29.376Z,997.11
2018-06-11T01:20:29.376Z,997.11
2018-06-11T01:21:29.369Z,997.13
2018-06-11T01:22:29.364Z,997.16
2018-06-11T01:23:29.357Z,997.15
2018-06-11T01:24:29.354Z,997.14
2018-06-11T01:25:29.347Z,997.14
2018-06-11T01:26:29.342Z,997.15
2018-06-11T01:27:29.337Z,997.16
2018-06-11T01:28:29.332Z,997.17
2018-06-11T01:29:29.329Z,997.12
2018-06-11T01:30:29.326Z,997.11
2018-06-11T01:31:29.322Z,997.14
2018-06-11T01:32:29.313Z,997.13
2018-06-11T01:33:29.316Z,997.10
2018-06-11T01:34:29.302Z,997.14
2018-06-11T01:35:29.297Z,997.08
2018-06-11T01:36:29.293Z,997.12
2018-06-11T01:37:29.294Z,997.12
2018-06-11T01:38:29.282Z,997.11
2018-06-11T01:39:29.277Z,997.08
2018-06-11T01:40:29.274Z,997.09
2018-06-11T01:41:29.268Z,997.06
2018-06-11T01:42:29.262Z,997.03
2018-06-11T01:43:29.257Z,997.01
2018-06-11T01:44:29.253Z,996.99
2018-06-11T01:45:29.247Z,996.97
2018-06-11T01:46:29.242Z,997.01
2018-06-11T01:47:29.237Z,996.97
2018-06-11T01:48:29.232Z,996.97
2018-06-11T01:49:29.228Z,996.98
2018-06-11T01:50:29.222Z,996.92
2018-06-11T01:51:29.218Z,996.92
2018-06-11T01:52:29.212Z,996.96
2018-06-11T01:53:29.211Z,996.92
2018-06-11T01:54:29.207Z,996.90
2018-06-11T01:55:29.196Z,996.85
2018-06-11T01:56:29.191Z,996.86
2018-06-11T01:57:29.188Z,996.84
2018-06-11T01:58:29.180Z,996.84
2018-06-11T01:59:29.175Z,996.81
2018-06-11T02:00:29.173Z,996.81
2018-06-11T02:01:29.170Z,996.77
2018-06-11T02:02:29.163Z,996.75
2018-06-11T02:03:29.155Z,996.73
2018-06-11T02:04:29.150Z,996.72
2018-06-11T02:05:29.146Z,996.70
2018-06-11T02:06:29.139Z,996.65
2018-06-11T02:07:29.137Z,996.65
2018-06-11T02:08:29.129Z,996.64
2018-06-11T02:09:29.124Z,996.62
2018-06-11T02:10:29.118Z,996.64
2018-06-11T02:11:29.115Z,996.62
2018-06-11T02:12:29.109Z,996.58
2018-06-11T02:13:29.105Z,996.59
2018-06-11T02:14:29.097Z,996.60
2018-06-11T02:15:29.092Z,996.58
2018-06-11T02:16:29.088Z,996.58
2018-06-11T02:17:29.082Z,996.60
2018-06-11T02:18:29.076Z,996.62
2018-06-11T02:19:29.071Z,996.59
2018-06-11T02:20:29.067Z,996.57
2018-06-11T02:21:29.067Z,996.60
2018-06-11T02:22:29.055Z,996.59
2018-06-11T02:23:29.051Z,996.60
2018-06-11T02:24:29.045Z,996.58
2018-06-11T02:25:29.040Z,996.59
2018-06-11T02:26:29.034Z,996.59
2018-06-11T02:27:29.032Z,996.58
2018-06-11T02:28:29.024Z,996.54
2018-06-11T02:29:29.019Z,996.59
2018-06-11T02:30:29.014Z,996.53
2018-06-11T02:31:29.009Z,996.58
2018-06-11T02:32:29.006Z,996.54
2018-06-11T02:33:29.002Z,996.52
2018-06-11T02:34:28.992Z,996.55
2018-06-11T02:35:28.988Z,996.60
2018-06-11T02:36:28.982Z,996.56
2018-06-11T02:37:28.977Z,996.56
2018-06-11T02:38:28.972Z,996.56
2018-06-11T02:39:28.965Z,996.60
2018-06-11T02:40:28.961Z,996.59
2018-06-11T02:41:28.955Z,996.63
2018-06-11T02:42:28.949Z,996.63
2018-06-11T02:43:28.946Z,996.66
2018-06-11T02:44:28.939Z,996.62
2018-06-11T02:45:28.934Z,996.67
2018-06-11T02:46:28.930Z,996.64
2018-06-11T02:47:28.922Z,996.63
2018-06-11T02:48:28.917Z,996.62
2018-06-11T02:49:28.912Z,996.63
2018-06-11T02:50:28.906Z,996.56
2018-06-11T02:51:28.904Z,996.59
2018-06-11T02:52:28.895Z,996.59
2018-06-11T02:53:28.898Z,996.58
2018-06-11T02:54:29.086Z,996.57
2018-06-11T02:55:28.883Z,996.56
2018-06-11T02:56:28.879Z,996.57
2018-06-11T02:57:28.868Z,996.52
2018-06-11T02:58:28.863Z,996.48
2018-06-11T02:59:28.862Z,996.50
2018-06-11T03:00:28.852Z,996.50
2018-06-11T03:01:28.847Z,996.54
2018-06-11T03:02:28.840Z,996.50
2018-06-11T03:03:28.840Z,996.50
2018-06-11T03:04:29.035Z,996.49
2018-06-11T03:05:28.825Z,996.47
2018-06-11T03:06:28.819Z,996.45
2018-06-11T03:07:28.818Z,996.40
2018-06-11T03:08:28.808Z,996.37
2018-06-11T03:09:28.803Z,996.38
2018-06-11T03:10:28.798Z,996.37
2018-06-11T03:11:28.791Z,996.39
2018-06-11T03:12:28.787Z,996.35
2018-06-11T03:13:28.780Z,996.35
2018-06-11T03:14:28.775Z,996.37
2018-06-11T03:15:28.850Z,996.40
2018-06-11T03:16:28.764Z,996.42
2018-06-11T03:17:28.759Z,996.45
2018-06-11T03:18:28.959Z,996.45
2018-06-11T03:19:28.748Z,996.39
2018-06-11T03:20:28.742Z,996.41
2018-06-11T03:21:28.737Z,996.37
2018-06-11T03:22:28.732Z,996.39
2018-06-11T03:23:28.729Z,996.38
2018-06-11T03:24:28.719Z,996.41
2018-06-11T03:25:28.714Z,996.43
2018-06-11T03:26:28.708Z,996.46
2018-06-11T03:27:28.701Z,996.46
2018-06-11T03:28:28.696Z,996.48
2018-06-11T03:29:28.691Z,996.54
2018-06-11T03:30:28.690Z,996.53
2018-06-11T03:31:28.679Z,996.52
2018-06-11T03:32:28.677Z,996.54
2018-06-11T03:33:28.668Z,996.51
2018-06-11T03:34:28.661Z,996.58
2018-06-11T03:35:28.660Z,996.54
2018-06-11T03:36:28.654Z,996.55
2018-06-11T03:37:28.649Z,996.55
2018-06-11T03:38:28.638Z,996.57
2018-06-11T03:39:28.632Z,996.57
2018-06-11T03:40:28.627Z,996.56
2018-06-11T03:41:28.621Z,996.60
2018-06-11T03:42:28.615Z,996.56
2018-06-11T03:43:28.613Z,996.60
2018-06-11T03:44:28.605Z,996.57
2018-06-11T03:45:28.598Z,996.57
2018-06-11T03:46:28.594Z,996.60
2018-06-11T03:47:28.587Z,996.61
2018-06-11T03:48:28.582Z,996.63
2018-06-11T03:49:28.580Z,996.64
2018-06-11T03:50:28.573Z,996.61
2018-06-11T03:51:28.563Z,996.66
2018-06-11T03:52:28.557Z,996.66
2018-06-11T03:53:28.552Z,996.64
2018-06-11T03:54:28.546Z,996.60
2018-06-11T03:55:28.540Z,996.63
2018-06-11T03:56:28.535Z,996.60
2018-06-11T03:57:28.533Z,996.63
2018-06-11T03:58:28.523Z,996.59
2018-06-11T03:59:28.518Z,996.62
2018-06-11T04:00:28.517Z,996.61
2018-06-11T04:01:28.511Z,996.57
2018-06-11T04:02:28.501Z,996.55
2018-06-11T04:03:28.496Z,996.54
2018-06-11T04:04:28.490Z,996.52
2018-06-11T04:05:28.487Z,996.52
2018-06-11T04:06:28.479Z,996.58
2018-06-11T04:07:28.477Z,996.56
2018-06-11T04:08:28.470Z,996.58
2018-06-11T04:09:28.463Z,996.55
2018-06-11T04:10:28.664Z,996.57
2018-06-11T04:11:28.455Z,996.58
2018-06-11T04:12:28.447Z,996.61
2018-06-11T04:13:28.443Z,996.59
2018-06-11T04:14:28.638Z,996.63
2018-06-11T04:15:28.430Z,996.62
2018-06-11T04:16:28.424Z,996.66
2018-06-11T04:17:28.420Z,996.70
2018-06-11T04:18:28.416Z,996.65
2018-06-11T04:19:28.449Z,996.60
2018-06-11T04:20:28.403Z,996.56
2018-06-11T04:21:28.397Z,996.55
2018-06-11T04:22:28.396Z,996.50
2018-06-11T04:23:28.387Z,996.56
2018-06-11T04:24:28.382Z,996.55
2018-06-11T04:25:28.377Z,996.49
2018-06-11T04:26:28.370Z,996.54
2018-06-11T04:27:28.365Z,996.58
2018-06-11T04:28:28.360Z,996.62
2018-06-11T04:29:28.358Z,996.62
2018-06-11T04:30:28.349Z,996.66
2018-06-11T04:31:28.345Z,996.66
2018-06-11T04:32:28.339Z,996.70
2018-06-11T04:33:28.337Z,996.74
2018-06-11T04:34:28.328Z,996.71
2018-06-11T04:35:28.323Z,996.76
2018-06-11T04:36:28.318Z,996.75
2018-06-11T04:37:28.321Z,996.73
2018-06-11T04:38:28.307Z,996.75
2018-06-11T04:39:28.305Z,996.73
2018-06-11T04:40:28.298Z,996.70
2018-06-11T04:41:28.296Z,996.77
2018-06-11T04:42:28.289Z,996.83
2018-06-11T04:43:28.282Z,996.82
2018-06-11T04:44:28.277Z,996.84
2018-06-11T04:45:28.274Z,996.88
2018-06-11T04:46:28.266Z,996.93
2018-06-11T04:47:28.261Z,996.92
2018-06-11T04:48:28.256Z,996.93
2018-06-11T04:49:28.251Z,996.97
2018-06-11T04:50:28.447Z,996.94
2018-06-11T04:51:28.242Z,996.96
2018-06-11T04:52:28.236Z,996.96
2018-06-11T04:53:28.258Z,996.95
2018-06-11T04:54:28.228Z,996.92
2018-06-11T04:55:28.223Z,996.89
2018-06-11T04:56:28.216Z,996.89
2018-06-11T04:57:28.211Z,996.83
2018-06-11T04:58:28.209Z,996.83
2018-06-11T04:59:28.205Z,996.81
2018-06-11T05:00:28.198Z,996.82
2018-06-11T05:01:28.197Z,996.78
2018-06-11T05:02:28.195Z,996.83
2018-06-11T05:04:28.177Z,996.82
2018-06-11T05:05:28.171Z,996.85
2018-06-11T05:06:28.172Z,996.84
2018-06-11T05:07:28.161Z,996.87
2018-06-11T05:08:28.159Z,996.86
2018-06-11T05:09:28.151Z,996.85
2018-06-11T05:10:28.146Z,996.86
2018-06-11T05:11:28.147Z,996.89
2018-06-11T05:12:28.137Z,996.88
2018-06-11T05:13:28.338Z,996.91
2018-06-11T05:14:28.130Z,996.87
2018-06-11T05:15:28.129Z,996.88
2018-06-11T05:16:28.119Z,996.87
2018-06-11T05:17:28.119Z,996.86
2018-06-11T05:18:28.112Z,996.86
2018-06-11T05:19:28.110Z,996.84
2018-06-11T05:20:28.102Z,996.83
2018-06-11T05:21:28.098Z,996.84
2018-06-11T05:22:28.092Z,996.83
2018-06-11T05:23:28.091Z,996.82
2018-06-11T05:24:28.085Z,996.77
2018-06-11T05:25:28.081Z,996.77
2018-06-11T05:26:28.074Z,996.77
2018-06-11T05:27:28.071Z,996.72
2018-06-11T05:28:28.066Z,996.74
2018-06-11T05:29:28.062Z,996.75
2018-06-11T05:30:28.059Z,996.74
2018-06-11T05:31:28.054Z,996.75
2018-06-11T05:32:28.049Z,996.81
2018-06-11T05:33:28.046Z,996.80
2018-06-11T05:34:28.047Z,996.79
2018-06-11T05:35:28.037Z,996.83
2018-06-11T05:36:28.033Z,996.82
2018-06-11T05:37:28.034Z,996.85
2018-06-11T05:38:28.030Z,996.89
2018-06-11T05:39:28.021Z,996.87
2018-06-11T05:40:28.143Z,996.88
2018-06-11T05:41:28.014Z,996.88
2018-06-11T05:42:28.011Z,996.84
2018-06-11T05:43:28.011Z,996.85
2018-06-11T05:44:28.002Z,996.84
2018-06-11T05:45:28.003Z,996.84
2018-06-11T05:46:27.995Z,996.87
2018-06-11T05:47:27.993Z,996.86
2018-06-11T05:48:27.988Z,996.83
2018-06-11T05:49:27.987Z,996.84
2018-06-11T05:50:27.979Z,996.81
2018-06-11T05:51:27.974Z,996.82
2018-06-11T05:52:27.974Z,996.82
2018-06-11T05:53:28.011Z,996.83
2018-06-11T05:54:27.966Z,996.81
2018-06-11T05:55:27.962Z,996.83
2018-06-11T05:56:27.956Z,996.85
2018-06-11T05:57:27.960Z,996.88
2018-06-11T05:58:27.947Z,996.87
2018-06-11T05:59:27.945Z,996.86
2018-06-11T06:00:27.939Z,996.90
2018-06-11T06:01:27.935Z,996.91
2018-06-11T06:02:27.930Z,996.91
2018-06-11T06:03:27.930Z,996.86
2018-06-11T06:04:27.923Z,996.83
2018-06-11T06:05:27.921Z,996.85
2018-06-11T06:06:27.915Z,996.87
2018-06-11T06:07:27.915Z,996.86
2018-06-11T06:08:27.908Z,996.83
2018-06-11T06:09:27.907Z,996.82
2018-06-11T06:10:27.904Z,996.82
2018-06-11T06:11:27.898Z,996.87
2018-06-11T06:12:27.893Z,996.87
2018-06-11T06:13:27.888Z,996.87
2018-06-11T06:14:27.892Z,996.82
2018-06-11T06:15:27.882Z,996.83
2018-06-11T06:16:27.877Z,996.82
2018-06-11T06:17:27.875Z,996.78
2018-06-11T06:18:27.868Z,996.79
2018-06-11T06:19:27.865Z,996.80
2018-06-11T06:20:27.862Z,996.78
2018-06-11T06:21:27.861Z,996.85
2018-06-11T06:22:27.856Z,996.87
2018-06-11T06:23:27.853Z,996.90
2018-06-11T06:24:27.847Z,996.93
2018-06-11T06:25:27.844Z,996.94
2018-06-11T06:26:27.842Z,996.95
2018-06-11T06:27:27.837Z,996.98
2018-06-11T06:28:27.834Z,996.97
2018-06-11T06:29:27.831Z,997.01
2018-06-11T06:30:27.829Z,997.05
2018-06-11T06:31:28.033Z,997.06
2018-06-11T06:32:27.826Z,997.08
2018-06-11T06:33:27.825Z,997.06
2018-06-11T06:34:27.932Z,997.05
2018-06-11T06:35:27.818Z,997.01
2018-06-11T06:36:27.811Z,996.96
2018-06-11T06:37:27.811Z,996.91
2018-06-11T06:38:27.804Z,996.94
2018-06-11T06:39:27.804Z,996.94
2018-06-11T06:40:27.852Z,996.99
2018-06-11T06:41:27.800Z,997.02
2018-06-11T06:42:27.795Z,997.04
2018-06-11T06:43:27.791Z,997.06
2018-06-11T06:44:27.791Z,997.02
2018-06-11T06:45:27.787Z,996.97
2018-06-11T06:46:27.788Z,996.95
2018-06-11T06:47:27.785Z,996.89
2018-06-11T06:48:27.780Z,996.85
2018-06-11T06:49:27.779Z,996.81
2018-06-11T06:50:27.777Z,996.81
2018-06-11T06:51:27.776Z,996.78
2018-06-11T06:52:27.769Z,996.77
2018-06-11T06:53:27.769Z,996.79
2018-06-11T06:54:27.765Z,996.82
2018-06-11T06:55:27.764Z,996.87
2018-06-11T06:56:27.761Z,996.83
2018-06-11T06:57:27.760Z,996.85
2018-06-11T06:58:27.762Z,996.88
2018-06-11T06:59:27.758Z,996.88
2018-06-11T07:00:27.757Z,996.87
2018-06-11T07:01:27.753Z,996.87
2018-06-11T07:02:27.751Z,996.90
2018-06-11T07:03:27.749Z,996.90
2018-06-11T07:04:27.749Z,996.91
2018-06-11T07:05:27.748Z,996.96
2018-06-11T07:06:27.746Z,996.95
2018-06-11T07:07:27.745Z,996.99
2018-06-11T07:08:27.745Z,997.05
2018-06-11T07:09:27.744Z,997.07
2018-06-11T07:10:27.742Z,997.06
2018-06-11T07:11:27.742Z,997.07
2018-06-11T07:12:27.741Z,997.06
2018-06-11T07:13:27.743Z,997.12
2018-06-11T07:14:27.738Z,997.18
2018-06-11T07:15:27.737Z,997.20
2018-06-11T07:16:27.738Z,997.18
2018-06-11T07:17:27.736Z,997.20
2018-06-11T07:18:27.733Z,997.18
2018-06-11T07:19:27.732Z,997.21
2018-06-11T07:20:27.731Z,997.19
2018-06-11T07:21:27.730Z,997.20
2018-06-11T07:22:27.728Z,997.18
2018-06-11T07:23:27.727Z,997.18
2018-06-11T07:24:27.726Z,997.15
2018-06-11T07:25:27.726Z,997.15
2018-06-11T07:26:27.725Z,997.15
2018-06-11T07:27:27.724Z,997.14
2018-06-11T07:28:27.722Z,997.15
2018-06-11T07:29:27.722Z,997.16
2018-06-11T07:30:27.720Z,997.19
2018-06-11T07:31:27.724Z,997.20
2018-06-11T07:32:27.772Z,997.22
2018-06-11T07:33:27.727Z,997.16
2018-06-11T07:34:27.716Z,997.11
2018-06-11T07:35:27.718Z,997.13
2018-06-11T07:36:27.714Z,997.13
2018-06-11T07:37:27.718Z,997.07
2018-06-11T07:38:27.914Z,997.12
2018-06-11T07:39:27.717Z,997.09
2018-06-11T07:40:27.709Z,997.06
2018-06-11T07:41:27.716Z,997.06
2018-06-11T07:42:27.707Z,997.02
2018-06-11T07:43:27.706Z,997.03
2018-06-11T07:44:27.708Z,997.07
2018-06-11T07:45:27.704Z,997.02
2018-06-11T07:46:27.702Z,997.03
2018-06-11T07:47:27.702Z,997.03
2018-06-11T07:48:27.704Z,997.00
2018-06-11T07:49:27.704Z,997.02
2018-06-11T07:50:27.702Z,996.96
2018-06-11T07:51:27.700Z,996.98
2018-06-11T07:52:27.705Z,996.96
2018-06-11T07:53:27.703Z,996.98
2018-06-11T07:54:27.699Z,996.96
2018-06-11T07:55:27.699Z,996.95
2018-06-11T07:56:27.700Z,996.99
2018-06-11T07:57:27.706Z,997.00
2018-06-11T07:58:27.700Z,996.95
2018-06-11T07:59:27.700Z,996.92
2018-06-11T08:00:27.701Z,996.95
2018-06-11T08:01:27.760Z,996.84
2018-06-11T08:02:27.702Z,996.80
2018-06-11T08:03:27.709Z,996.79
2018-06-11T08:04:27.708Z,996.75
2018-06-11T08:05:27.909Z,996.77
2018-06-11T08:06:27.709Z,996.82
2018-06-11T08:07:27.731Z,996.78
2018-06-11T08:08:27.718Z,996.78
2018-06-11T08:09:27.715Z,996.78
2018-06-11T08:10:27.715Z,996.75
2018-06-11T08:11:27.718Z,996.81
2018-06-11T08:12:27.721Z,996.83
2018-06-11T08:13:27.787Z,996.81
2018-06-11T08:14:27.725Z,996.81
2018-06-11T08:15:27.727Z,996.81
2018-06-11T08:16:27.727Z,996.85
2018-06-11T08:17:27.931Z,996.84
2018-06-11T08:18:27.729Z,996.87
2018-06-11T08:19:27.732Z,996.89
2018-06-11T08:20:27.733Z,996.90
2018-06-11T08:21:27.735Z,996.92
2018-06-11T08:22:27.741Z,996.92
2018-06-11T08:23:27.741Z,996.96
2018-06-11T08:25:27.743Z,996.96
2018-06-11T08:26:27.747Z,996.99
2018-06-11T08:27:27.783Z,997.04
2018-06-11T08:28:27.753Z,997.04
2018-06-11T08:29:27.756Z,997.07
2018-06-11T08:30:27.757Z,997.05
2018-06-11T08:31:27.760Z,997.10
2018-06-11T08:32:27.766Z,997.13
2018-06-11T08:33:27.967Z,997.11
2018-06-11T08:34:27.767Z,997.10
2018-06-11T08:35:27.772Z,997.12
2018-06-11T08:36:27.773Z,997.18
2018-06-11T08:37:27.775Z,997.19
2018-06-11T08:38:27.776Z,997.22
2018-06-11T08:39:27.779Z,997.24
2018-06-11T08:40:27.782Z,997.24
2018-06-11T08:41:27.784Z,997.24
2018-06-11T08:42:27.787Z,997.30
2018-06-11T08:43:27.790Z,997.30
2018-06-11T08:44:27.792Z,997.34
2018-06-11T08:45:27.799Z,997.38
2018-06-11T08:46:27.797Z,997.44
2018-06-11T08:47:27.799Z,997.47
2018-06-11T08:48:27.802Z,997.47
2018-06-11T08:49:27.804Z,997.44
2018-06-11T08:50:27.811Z,997.35
2018-06-11T08:51:27.807Z,997.32
2018-06-11T08:52:27.809Z,997.22
2018-06-11T08:53:27.815Z,997.20
2018-06-11T08:54:27.816Z,997.19
2018-06-11T08:55:27.813Z,997.23
2018-06-11T08:56:27.820Z,997.26
2018-06-11T08:57:27.818Z,997.29
2018-06-11T08:58:27.821Z,997.29
2018-06-11T08:59:27.821Z,997.25
2018-06-11T09:00:27.827Z,997.21
2018-06-11T09:01:27.827Z,997.16
2018-06-11T09:02:27.829Z,997.19
2018-06-11T09:03:27.834Z,997.13
2018-06-11T09:04:27.836Z,997.15
2018-06-11T09:05:27.839Z,997.17
2018-06-11T09:06:27.842Z,997.18
2018-06-11T09:07:27.847Z,997.14
2018-06-11T09:08:27.849Z,997.16
2018-06-11T09:09:27.853Z,997.13
2018-06-11T09:10:27.856Z,997.09
2018-06-11T09:11:27.864Z,997.05
2018-06-11T09:12:27.866Z,997.06
2018-06-11T09:13:28.074Z,997.05
2018-06-11T09:14:27.873Z,997.07
2018-06-11T09:15:27.881Z,997.06
2018-06-11T09:16:27.883Z,997.04
2018-06-11T09:17:27.891Z,997.01
2018-06-11T09:18:28.063Z,996.99
2018-06-11T09:19:27.896Z,996.96
2018-06-11T09:20:27.901Z,997.02
2018-06-11T09:21:27.906Z,997.02
2018-06-11T09:22:27.911Z,997.01
2018-06-11T09:23:27.919Z,996.97
2018-06-11T09:24:27.925Z,997.00
2018-06-11T09:25:27.930Z,996.99
2018-06-11T09:26:27.930Z,997.05
2018-06-11T09:27:27.937Z,997.01
2018-06-11T09:28:27.944Z,997.03
2018-06-11T09:29:27.948Z,997.05
2018-06-11T09:30:27.951Z,997.03
2018-06-11T09:31:27.958Z,997.00
2018-06-11T09:32:27.965Z,997.07
2018-06-11T09:33:27.972Z,997.08
2018-06-11T09:34:27.973Z,997.04
2018-06-11T09:35:27.978Z,997.06
2018-06-11T09:36:27.984Z,997.08
2018-06-11T09:37:27.993Z,997.04
2018-06-11T09:38:27.995Z,997.05
2018-06-11T09:39:28.003Z,997.04
2018-06-11T09:40:28.010Z,997.04
2018-06-11T09:41:28.015Z,997.00
2018-06-11T09:42:28.020Z,996.99
2018-06-11T09:43:28.028Z,996.94
2018-06-11T09:44:28.033Z,996.98
2018-06-11T09:45:28.042Z,997.00
2018-06-11T09:46:28.045Z,996.93
2018-06-11T09:47:28.052Z,996.89
2018-06-11T09:48:28.059Z,996.83
2018-06-11T09:49:28.073Z,996.88
2018-06-11T09:50:28.072Z,996.85
2018-06-11T09:51:28.080Z,996.84
2018-06-11T09:52:28.089Z,996.82
2018-06-11T09:53:28.095Z,996.84
2018-06-11T09:54:28.104Z,996.87
2018-06-11T09:55:28.110Z,996.84
2018-06-11T09:56:28.124Z,996.84
2018-06-11T09:57:28.132Z,996.83
2018-06-11T09:58:28.340Z,996.79
2018-06-11T09:59:28.153Z,996.83
2018-06-11T10:00:28.158Z,996.85
2018-06-11T10:01:28.168Z,996.91
2018-06-11T10:02:28.180Z,996.91
2018-06-11T10:03:28.188Z,996.85
2018-06-11T10:04:28.200Z,996.88
2018-06-11T10:05:28.256Z,996.86
2018-06-11T10:06:28.223Z,996.88
2018-06-11T10:07:28.232Z,996.87
2018-06-11T10:08:28.251Z,996.90
2018-06-11T10:09:28.255Z,996.87
2018-06-11T10:10:28.264Z,996.93
2018-06-11T10:11:28.277Z,996.90
2018-06-11T10:12:28.335Z,996.87
2018-06-11T10:13:28.303Z,996.83
2018-06-11T10:14:28.305Z,996.89
2018-06-11T10:15:28.527Z,996.87
2018-06-11T10:16:28.325Z,996.88
2018-06-11T10:17:28.537Z,996.86
2018-06-11T10:18:28.344Z,996.86
2018-06-11T10:19:28.354Z,996.84
2018-06-11T10:20:28.366Z,996.87
2018-06-11T10:21:28.372Z,996.84
2018-06-11T10:22:28.381Z,996.86
2018-06-11T10:23:28.395Z,996.85
2018-06-11T10:24:28.402Z,996.82
2018-06-11T10:25:28.611Z,996.88
2018-06-11T10:26:28.417Z,996.85
2018-06-11T10:27:28.426Z,996.84
2018-06-11T10:28:28.436Z,996.88
2018-06-11T10:29:28.446Z,996.83
2018-06-11T10:30:28.454Z,996.95
2018-06-11T10:31:28.465Z,996.93
2018-06-11T10:32:28.476Z,996.92
2018-06-11T10:33:28.485Z,996.88
2018-06-11T10:34:28.493Z,996.97
2018-06-11T10:35:28.506Z,996.97
2018-06-11T10:36:28.514Z,997.00
2018-06-11T10:37:28.525Z,996.97
2018-06-11T10:38:28.541Z,996.97
2018-06-11T10:39:28.551Z,996.95
2018-06-11T10:40:28.561Z,996.94
2018-06-11T10:41:28.576Z,996.97
2018-06-11T10:42:28.581Z,996.95
2018-06-11T10:43:28.595Z,996.93
2018-06-11T10:44:28.608Z,996.92
2018-06-11T10:45:28.634Z,996.89
2018-06-11T10:46:28.630Z,996.90
2018-06-11T10:47:28.642Z,996.92
2018-06-11T10:48:28.660Z,996.92
2018-06-11T10:49:28.673Z,996.95
2018-06-11T10:50:28.679Z,996.91
2018-06-11T10:51:28.899Z,996.93
2018-06-11T10:52:28.704Z,996.89
2018-06-11T10:53:28.717Z,996.88
2018-06-11T10:54:28.731Z,996.89
2018-06-11T10:55:28.746Z,996.88
2018-06-11T10:56:28.755Z,996.86
2018-06-11T10:57:28.767Z,996.86
2018-06-11T10:58:28.780Z,996.84
2018-06-11T10:59:28.800Z,996.81
2018-06-11T11:00:28.806Z,996.85
2018-06-11T11:01:28.819Z,996.85
2018-06-11T11:02:28.831Z,996.80
2018-06-11T11:03:29.046Z,996.85
2018-06-11T11:04:28.865Z,996.83
2018-06-11T11:05:28.871Z,996.81
2018-06-11T11:06:28.884Z,996.76
2018-06-11T11:07:28.896Z,996.76
2018-06-11T11:08:28.912Z,996.76
2018-06-11T11:09:28.924Z,996.72
2018-06-11T11:10:28.936Z,996.68
2018-06-11T11:11:28.949Z,996.65
2018-06-11T11:12:28.989Z,996.63
2018-06-11T11:13:28.977Z,996.61
2018-06-11T11:14:28.990Z,996.59
2018-06-11T11:15:29.003Z,996.56
2018-06-11T11:16:29.024Z,996.60
2018-06-11T11:17:29.033Z,996.57
2018-06-11T11:18:29.051Z,996.56
2018-06-11T11:19:29.056Z,996.59
2018-06-11T11:20:29.070Z,996.55
2018-06-11T11:21:29.084Z,996.56
2018-06-11T11:22:29.101Z,996.60
2018-06-11T11:23:29.109Z,996.57
2018-06-11T11:24:29.125Z,996.54
2018-06-11T11:25:29.136Z,996.54
2018-06-11T11:26:29.148Z,996.56
2018-06-11T11:27:29.161Z,996.54
2018-06-11T11:28:29.183Z,996.51
2018-06-11T11:29:29.194Z,996.47
2018-06-11T11:30:29.200Z,996.47
2018-06-11T11:31:29.215Z,996.45
2018-06-11T11:32:29.224Z,996.37
2018-06-11T11:33:29.237Z,996.37
2018-06-11T11:34:29.251Z,996.32
2018-06-11T11:35:29.261Z,996.28
2018-06-11T11:36:29.273Z,996.28
2018-06-11T11:37:29.288Z,996.23
2018-06-11T11:38:29.297Z,996.19
2018-06-11T11:39:29.312Z,996.20
2018-06-11T11:40:29.321Z,996.20
2018-06-11T11:41:29.334Z,996.10
2018-06-11T11:42:29.347Z,996.04
2018-06-11T11:43:29.354Z,996.02
2018-06-11T11:44:29.370Z,995.95
2018-06-11T11:45:29.382Z,995.95
2018-06-11T11:46:29.386Z,995.90
2018-06-11T11:47:29.601Z,995.93
2018-06-11T11:48:29.409Z,995.88
2018-06-11T11:49:29.418Z,995.91
2018-06-11T11:50:29.428Z,995.90
2018-06-11T11:51:29.438Z,995.98
2018-06-11T11:52:29.449Z,995.95
2018-06-11T11:53:29.458Z,995.96
2018-06-11T11:54:29.467Z,995.94
2018-06-11T11:55:29.477Z,995.93
2018-06-11T11:56:29.488Z,995.90
2018-06-11T11:57:29.526Z,995.93
2018-06-11T11:58:29.509Z,995.95
2018-06-11T11:59:29.514Z,995.95
2018-06-11T12:00:29.527Z,996.01
2018-06-11T12:01:29.531Z,996.01
2018-06-11T12:02:29.539Z,996.02
2018-06-11T12:03:29.548Z,996.05
2018-06-11T12:04:29.559Z,996.06
2018-06-11T12:05:29.565Z,996.08
2018-06-11T12:06:29.572Z,996.16
2018-06-11T12:07:29.582Z,996.13
2018-06-11T12:08:29.589Z,996.14
2018-06-11T12:09:29.598Z,996.15
2018-06-11T12:10:29.605Z,996.13
2018-06-11T12:11:29.614Z,996.14
2018-06-11T12:12:29.624Z,996.09
2018-06-11T12:13:29.631Z,996.09
2018-06-11T12:14:29.639Z,996.10
2018-06-11T12:15:29.653Z,996.10
2018-06-11T12:16:29.659Z,996.10
2018-06-11T12:17:29.667Z,996.09
2018-06-11T12:18:29.675Z,996.12
2018-06-11T12:19:29.686Z,996.08
2018-06-11T12:20:29.696Z,996.05
2018-06-11T12:21:29.704Z,995.99
2018-06-11T12:22:29.712Z,996.01
2018-06-11T12:23:29.719Z,995.99
2018-06-11T12:24:29.731Z,995.96
2018-06-11T12:25:29.737Z,995.91
2018-06-11T12:26:29.752Z,995.83
2018-06-11T12:27:29.755Z,995.82
2018-06-11T12:28:29.765Z,995.75
2018-06-11T12:29:29.774Z,995.68
2018-06-11T12:30:29.790Z,995.60